sensor_id;sensor_type;location;lat;lon;timestamp;P1;durP1;ratioP1;P2;durP2;ratioP2
19800;SDS011;10060;48.274;12.214;2022-12-24T00:02:10;1.63;;;1.00;;
19800;SDS011;10060;48.274;12.214;2022-12-24T00:05:14;1.00;;;1.00;;
19800;SDS011;10060;48.274;12.214;2022-12-24T00:08:16;1.07;;;1.00;;
19800;SDS011;10060;48.274;12.214;2022-12-24T00:11:18;1.73;;;0.97;;
19800;SDS011;10060;48.274;12.214;2022-12-24T00:14:20;0.97;;;0.90;;
19800;SDS011;10060;48.274;12.214;2022-12-24T00:17:23;1.10;;;1.00;;
19800;SDS011;10060;48.274;12.214;2022-12-24T00:20:26;1.23;;;0.83;;
19800;SDS011;10060;48.274;12.214;2022-12-24T00:23:28;1.47;;;1.13;;
19800;SDS011;10060;48.274;12.214;2022-12-24T00:26:31;1.13;;;1.07;;
19800;SDS011;10060;48.274;12.214;2022-12-24T00:29:33;1.07;;;1.07;;
19800;SDS011;10060;48.274;12.214;2022-12-24T00:32:35;1.10;;;1.00;;
19800;SDS011;10060;48.274;12.214;2022-12-24T00:35:39;0.90;;;0.90;;
19800;SDS011;10060;48.274;12.214;2022-12-24T00:38:41;1.67;;;1.10;;
19800;SDS011;10060;48.274;12.214;2022-12-24T00:41:43;1.13;;;1.03;;
19800;SDS011;10060;48.274;12.214;2022-12-24T00:44:46;1.20;;;1.10;;
19800;SDS011;10060;48.274;12.214;2022-12-24T00:47:48;2.20;;;0.90;;
19800;SDS011;10060;48.274;12.214;2022-12-24T00:50:51;2.80;;;1.00;;
19800;SDS011;10060;48.274;12.214;2022-12-24T00:53:54;1.20;;;1.10;;
19800;SDS011;10060;48.274;12.214;2022-12-24T00:56:56;1.00;;;0.93;;
19800;SDS011;10060;48.274;12.214;2022-12-24T00:59:58;1.63;;;1.20;;
19800;SDS011;10060;48.274;12.214;2022-12-24T01:03:00;1.20;;;1.10;;
19800;SDS011;10060;48.274;12.214;2022-12-24T01:06:04;6.33;;;1.47;;
19800;SDS011;10060;48.274;12.214;2022-12-24T01:09:06;5.33;;;1.23;;
19800;SDS011;10060;48.274;12.214;2022-12-24T01:12:08;3.00;;;1.37;;
19800;SDS011;10060;48.274;12.214;2022-12-24T01:15:10;1.87;;;1.10;;
19800;SDS011;10060;48.274;12.214;2022-12-24T01:18:13;1.47;;;1.20;;
19800;SDS011;10060;48.274;12.214;2022-12-24T01:21:16;1.40;;;1.30;;
19800;SDS011;10060;48.274;12.214;2022-12-24T01:24:18;3.50;;;1.30;;
19800;SDS011;10060;48.274;12.214;2022-12-24T01:27:20;4.90;;;1.17;;
19800;SDS011;10060;48.274;12.214;2022-12-24T01:30:23;2.10;;;1.90;;
19800;SDS011;10060;48.274;12.214;2022-12-24T01:33:26;1.73;;;1.30;;
19800;SDS011;10060;48.274;12.214;2022-12-24T01:36:30;2.00;;;1.20;;
19800;SDS011;10060;48.274;12.214;2022-12-24T01:39:32;1.97;;;1.77;;
19800;SDS011;10060;48.274;12.214;2022-12-24T01:42:34;2.10;;;1.17;;
19800;SDS011;10060;48.274;12.214;2022-12-24T01:45:55;1.33;;;1.23;;
19800;SDS011;10060;48.274;12.214;2022-12-24T01:48:58;2.23;;;1.47;;
19800;SDS011;10060;48.274;12.214;2022-12-24T01:52:04;1.13;;;1.07;;
19800;SDS011;10060;48.274;12.214;2022-12-24T01:55:08;1.40;;;1.30;;
19800;SDS011;10060;48.274;12.214;2022-12-24T01:58:11;1.60;;;1.40;;
19800;SDS011;10060;48.274;12.214;2022-12-24T02:01:14;1.17;;;1.17;;
19800;SDS011;10060;48.274;12.214;2022-12-24T02:04:18;2.43;;;1.50;;
19800;SDS011;10060;48.274;12.214;2022-12-24T02:07:26;2.13;;;1.40;;
19800;SDS011;10060;48.274;12.214;2022-12-24T02:10:28;4.00;;;1.73;;
19800;SDS011;10060;48.274;12.214;2022-12-24T02:13:30;1.70;;;1.30;;
19800;SDS011;10060;48.274;12.214;2022-12-24T02:16:35;3.00;;;1.40;;
19800;SDS011;10060;48.274;12.214;2022-12-24T02:23:05;2.03;;;1.50;;
19800;SDS011;10060;48.274;12.214;2022-12-24T02:26:17;2.40;;;1.50;;
19800;SDS011;10060;48.274;12.214;2022-12-24T02:29:26;1.40;;;1.30;;
19800;SDS011;10060;48.274;12.214;2022-12-24T02:32:39;1.40;;;1.30;;
19800;SDS011;10060;48.274;12.214;2022-12-24T02:35:46;3.23;;;1.43;;
19800;SDS011;10060;48.274;12.214;2022-12-24T02:38:50;1.80;;;1.63;;
19800;SDS011;10060;48.274;12.214;2022-12-24T02:41:53;1.70;;;1.50;;
19800;SDS011;10060;48.274;12.214;2022-12-24T02:45:06;2.27;;;1.27;;
19800;SDS011;10060;48.274;12.214;2022-12-24T02:48:11;1.40;;;1.30;;
19800;SDS011;10060;48.274;12.214;2022-12-24T02:51:14;2.30;;;1.50;;
19800;SDS011;10060;48.274;12.214;2022-12-24T02:54:16;2.43;;;1.37;;
19800;SDS011;10060;48.274;12.214;2022-12-24T02:57:20;2.67;;;1.30;;
19800;SDS011;10060;48.274;12.214;2022-12-24T03:00:24;2.83;;;1.50;;
19800;SDS011;10060;48.274;12.214;2022-12-24T03:03:32;2.20;;;1.43;;
19800;SDS011;10060;48.274;12.214;2022-12-24T03:06:38;4.17;;;1.40;;
19800;SDS011;10060;48.274;12.214;2022-12-24T03:09:48;2.33;;;1.20;;
19800;SDS011;10060;48.274;12.214;2022-12-24T03:12:52;1.80;;;1.37;;
19800;SDS011;10060;48.274;12.214;2022-12-24T03:15:56;2.33;;;1.40;;
19800;SDS011;10060;48.274;12.214;2022-12-24T03:18:59;5.03;;;1.40;;
19800;SDS011;10060;48.274;12.214;2022-12-24T03:22:03;2.53;;;1.40;;
19800;SDS011;10060;48.274;12.214;2022-12-24T03:25:08;3.50;;;1.60;;
19800;SDS011;10060;48.274;12.214;2022-12-24T03:28:10;3.47;;;1.60;;
19800;SDS011;10060;48.274;12.214;2022-12-24T03:31:13;1.70;;;1.47;;
19800;SDS011;10060;48.274;12.214;2022-12-24T03:34:17;1.47;;;1.30;;
19800;SDS011;10060;48.274;12.214;2022-12-24T03:37:20;4.80;;;1.90;;
19800;SDS011;10060;48.274;12.214;2022-12-24T03:40:22;1.80;;;1.27;;
19800;SDS011;10060;48.274;12.214;2022-12-24T03:43:24;4.40;;;1.53;;
19800;SDS011;10060;48.274;12.214;2022-12-24T03:46:26;2.07;;;1.70;;
19800;SDS011;10060;48.274;12.214;2022-12-24T03:49:30;4.83;;;1.37;;
19800;SDS011;10060;48.274;12.214;2022-12-24T03:52:32;3.80;;;1.67;;
19800;SDS011;10060;48.274;12.214;2022-12-24T03:55:34;2.07;;;1.50;;
19800;SDS011;10060;48.274;12.214;2022-12-24T03:58:36;2.07;;;1.60;;
19800;SDS011;10060;48.274;12.214;2022-12-24T04:01:38;3.20;;;1.53;;
19800;SDS011;10060;48.274;12.214;2022-12-24T04:04:42;1.57;;;1.47;;
19800;SDS011;10060;48.274;12.214;2022-12-24T04:07:44;1.50;;;1.40;;
19800;SDS011;10060;48.274;12.214;2022-12-24T04:10:46;3.13;;;1.30;;
19800;SDS011;10060;48.274;12.214;2022-12-24T04:13:48;2.80;;;1.77;;
19800;SDS011;10060;48.274;12.214;2022-12-24T04:16:50;2.60;;;1.37;;
19800;SDS011;10060;48.274;12.214;2022-12-24T04:19:54;2.27;;;1.50;;
19800;SDS011;10060;48.274;12.214;2022-12-24T04:22:56;4.40;;;1.80;;
19800;SDS011;10060;48.274;12.214;2022-12-24T04:25:58;2.17;;;1.40;;
19800;SDS011;10060;48.274;12.214;2022-12-24T04:29:01;2.87;;;1.50;;
19800;SDS011;10060;48.274;12.214;2022-12-24T04:32:03;2.83;;;1.53;;
19800;SDS011;10060;48.274;12.214;2022-12-24T04:35:07;3.50;;;1.70;;
19800;SDS011;10060;48.274;12.214;2022-12-24T04:38:09;2.80;;;1.43;;
19800;SDS011;10060;48.274;12.214;2022-12-24T04:41:12;2.73;;;1.67;;
19800;SDS011;10060;48.274;12.214;2022-12-24T04:44:15;3.23;;;1.73;;
19800;SDS011;10060;48.274;12.214;2022-12-24T04:47:17;3.30;;;1.27;;
19800;SDS011;10060;48.274;12.214;2022-12-24T04:50:21;3.50;;;1.80;;
19800;SDS011;10060;48.274;12.214;2022-12-24T04:53:23;1.87;;;1.50;;
19800;SDS011;10060;48.274;12.214;2022-12-24T04:56:26;2.50;;;1.50;;
19800;SDS011;10060;48.274;12.214;2022-12-24T04:59:28;4.07;;;1.40;;
19800;SDS011;10060;48.274;12.214;2022-12-24T05:02:31;3.20;;;1.60;;
19800;SDS011;10060;48.274;12.214;2022-12-24T05:05:34;1.70;;;1.23;;
19800;SDS011;10060;48.274;12.214;2022-12-24T05:08:36;1.97;;;1.60;;
19800;SDS011;10060;48.274;12.214;2022-12-24T05:11:38;2.03;;;1.53;;
19800;SDS011;10060;48.274;12.214;2022-12-24T05:14:41;1.90;;;1.80;;
19800;SDS011;10060;48.274;12.214;2022-12-24T05:17:43;5.87;;;1.50;;
19800;SDS011;10060;48.274;12.214;2022-12-24T05:20:46;2.93;;;1.57;;
19800;SDS011;10060;48.274;12.214;2022-12-24T05:23:49;4.30;;;1.57;;
19800;SDS011;10060;48.274;12.214;2022-12-24T05:27:09;3.10;;;1.30;;
19800;SDS011;10060;48.274;12.214;2022-12-24T05:30:11;2.70;;;1.43;;
19800;SDS011;10060;48.274;12.214;2022-12-24T05:33:13;2.97;;;1.60;;
19800;SDS011;10060;48.274;12.214;2022-12-24T05:36:16;2.47;;;1.53;;
19800;SDS011;10060;48.274;12.214;2022-12-24T05:39:19;2.00;;;1.60;;
19800;SDS011;10060;48.274;12.214;2022-12-24T05:42:21;1.60;;;1.50;;
19800;SDS011;10060;48.274;12.214;2022-12-24T05:45:23;2.17;;;1.47;;
19800;SDS011;10060;48.274;12.214;2022-12-24T05:48:25;2.10;;;1.43;;
19800;SDS011;10060;48.274;12.214;2022-12-24T05:51:28;3.97;;;1.60;;
19800;SDS011;10060;48.274;12.214;2022-12-24T05:54:30;1.80;;;1.47;;
19800;SDS011;10060;48.274;12.214;2022-12-24T05:57:32;3.57;;;1.60;;
19800;SDS011;10060;48.274;12.214;2022-12-24T06:00:34;2.83;;;1.83;;
19800;SDS011;10060;48.274;12.214;2022-12-24T06:03:37;2.23;;;1.70;;
19800;SDS011;10060;48.274;12.214;2022-12-24T06:06:40;2.40;;;1.40;;
19800;SDS011;10060;48.274;12.214;2022-12-24T06:09:42;4.83;;;1.67;;
19800;SDS011;10060;48.274;12.214;2022-12-24T06:12:44;7.83;;;1.80;;
19800;SDS011;10060;48.274;12.214;2022-12-24T06:15:46;4.10;;;1.43;;
19800;SDS011;10060;48.274;12.214;2022-12-24T06:18:49;3.53;;;1.37;;
19800;SDS011;10060;48.274;12.214;2022-12-24T06:21:52;6.67;;;1.90;;
19800;SDS011;10060;48.274;12.214;2022-12-24T06:24:55;6.23;;;1.73;;
19800;SDS011;10060;48.274;12.214;2022-12-24T06:27:57;4.10;;;1.70;;
19800;SDS011;10060;48.274;12.214;2022-12-24T06:30:59;2.77;;;2.07;;
19800;SDS011;10060;48.274;12.214;2022-12-24T06:34:01;7.53;;;1.50;;
19800;SDS011;10060;48.274;12.214;2022-12-24T06:37:05;1.30;;;1.13;;
19800;SDS011;10060;48.274;12.214;2022-12-24T06:40:09;1.77;;;1.53;;
19800;SDS011;10060;48.274;12.214;2022-12-24T06:43:11;2.87;;;1.63;;
19800;SDS011;10060;48.274;12.214;2022-12-24T06:46:14;3.63;;;1.27;;
19800;SDS011;10060;48.274;12.214;2022-12-24T06:49:16;6.67;;;1.60;;
19800;SDS011;10060;48.274;12.214;2022-12-24T06:52:20;2.57;;;1.40;;
19800;SDS011;10060;48.274;12.214;2022-12-24T06:55:22;2.13;;;1.60;;
19800;SDS011;10060;48.274;12.214;2022-12-24T06:58:24;2.60;;;1.70;;
19800;SDS011;10060;48.274;12.214;2022-12-24T07:01:26;2.97;;;1.20;;
19800;SDS011;10060;48.274;12.214;2022-12-24T07:04:28;5.80;;;1.40;;
19800;SDS011;10060;48.274;12.214;2022-12-24T07:07:32;2.10;;;1.60;;
19800;SDS011;10060;48.274;12.214;2022-12-24T07:10:34;1.60;;;1.33;;
19800;SDS011;10060;48.274;12.214;2022-12-24T07:13:36;7.33;;;1.70;;
19800;SDS011;10060;48.274;12.214;2022-12-24T07:16:38;2.97;;;1.60;;
19800;SDS011;10060;48.274;12.214;2022-12-24T07:19:40;3.43;;;1.40;;
19800;SDS011;10060;48.274;12.214;2022-12-24T07:22:44;3.37;;;1.40;;
19800;SDS011;10060;48.274;12.214;2022-12-24T07:25:46;3.77;;;1.70;;
19800;SDS011;10060;48.274;12.214;2022-12-24T07:28:48;1.87;;;1.60;;
19800;SDS011;10060;48.274;12.214;2022-12-24T07:31:50;3.17;;;1.30;;
19800;SDS011;10060;48.274;12.214;2022-12-24T07:34:52;3.90;;;1.80;;
19800;SDS011;10060;48.274;12.214;2022-12-24T07:37:56;4.07;;;1.80;;
19800;SDS011;10060;48.274;12.214;2022-12-24T07:40:58;5.03;;;1.90;;
19800;SDS011;10060;48.274;12.214;2022-12-24T07:44:00;5.73;;;1.70;;
19800;SDS011;10060;48.274;12.214;2022-12-24T07:47:02;5.77;;;1.93;;
19800;SDS011;10060;48.274;12.214;2022-12-24T07:50:05;2.83;;;2.33;;
19800;SDS011;10060;48.274;12.214;2022-12-24T07:53:09;7.30;;;3.30;;
19800;SDS011;10060;48.274;12.214;2022-12-24T07:56:11;3.57;;;2.23;;
19800;SDS011;10060;48.274;12.214;2022-12-24T07:59:13;3.07;;;1.87;;
19800;SDS011;10060;48.274;12.214;2022-12-24T08:02:15;6.20;;;2.23;;
19800;SDS011;10060;48.274;12.214;2022-12-24T08:05:17;5.07;;;3.97;;
19800;SDS011;10060;48.274;12.214;2022-12-24T08:08:20;7.13;;;4.10;;
19800;SDS011;10060;48.274;12.214;2022-12-24T08:11:22;15.00;;;3.77;;
19800;SDS011;10060;48.274;12.214;2022-12-24T08:14:24;5.73;;;2.60;;
19800;SDS011;10060;48.274;12.214;2022-12-24T08:17:27;5.63;;;2.07;;
19800;SDS011;10060;48.274;12.214;2022-12-24T08:20:29;3.43;;;1.73;;
19800;SDS011;10060;48.274;12.214;2022-12-24T08:23:32;3.13;;;1.83;;
19800;SDS011;10060;48.274;12.214;2022-12-24T08:26:34;5.30;;;1.70;;
19800;SDS011;10060;48.274;12.214;2022-12-24T08:29:37;2.20;;;1.70;;
19800;SDS011;10060;48.274;12.214;2022-12-24T08:32:39;2.40;;;1.50;;
19800;SDS011;10060;48.274;12.214;2022-12-24T08:35:45;2.93;;;1.60;;
19800;SDS011;10060;48.274;12.214;2022-12-24T08:38:49;2.40;;;1.50;;
19800;SDS011;10060;48.274;12.214;2022-12-24T08:41:51;3.27;;;1.20;;
19800;SDS011;10060;48.274;12.214;2022-12-24T08:44:53;1.60;;;1.20;;
19800;SDS011;10060;48.274;12.214;2022-12-24T08:47:56;2.90;;;1.60;;
19800;SDS011;10060;48.274;12.214;2022-12-24T08:50:59;1.27;;;1.17;;
19800;SDS011;10060;48.274;12.214;2022-12-24T08:54:03;1.60;;;1.20;;
19800;SDS011;10060;48.274;12.214;2022-12-24T08:57:05;3.30;;;1.23;;
19800;SDS011;10060;48.274;12.214;2022-12-24T09:00:07;1.87;;;1.37;;
19800;SDS011;10060;48.274;12.214;2022-12-24T09:03:10;3.87;;;1.30;;
19800;SDS011;10060;48.274;12.214;2022-12-24T09:06:15;2.53;;;1.70;;
19800;SDS011;10060;48.274;12.214;2022-12-24T09:09:19;1.40;;;1.30;;
19800;SDS011;10060;48.274;12.214;2022-12-24T09:12:21;1.93;;;1.60;;
19800;SDS011;10060;48.274;12.214;2022-12-24T09:15:23;2.93;;;2.23;;
19800;SDS011;10060;48.274;12.214;2022-12-24T09:18:25;2.80;;;1.67;;
19800;SDS011;10060;48.274;12.214;2022-12-24T09:21:27;1.20;;;1.10;;
19800;SDS011;10060;48.274;12.214;2022-12-24T09:24:31;4.07;;;1.40;;
19800;SDS011;10060;48.274;12.214;2022-12-24T09:27:35;1.87;;;1.33;;
19800;SDS011;10060;48.274;12.214;2022-12-24T09:30:37;1.63;;;1.40;;
19800;SDS011;10060;48.274;12.214;2022-12-24T09:33:40;1.73;;;1.33;;
19800;SDS011;10060;48.274;12.214;2022-12-24T09:36:42;1.43;;;1.37;;
19800;SDS011;10060;48.274;12.214;2022-12-24T09:39:46;1.00;;;0.90;;
19800;SDS011;10060;48.274;12.214;2022-12-24T09:42:50;1.80;;;1.40;;
19800;SDS011;10060;48.274;12.214;2022-12-24T09:45:57;1.40;;;1.10;;
19800;SDS011;10060;48.274;12.214;2022-12-24T09:49:03;2.53;;;1.17;;
19800;SDS011;10060;48.274;12.214;2022-12-24T09:52:07;1.20;;;1.10;;
19800;SDS011;10060;48.274;12.214;2022-12-24T09:55:14;3.60;;;1.20;;
19800;SDS011;10060;48.274;12.214;2022-12-24T09:58:19;2.77;;;1.00;;
19800;SDS011;10060;48.274;12.214;2022-12-24T10:01:23;1.40;;;1.30;;
19800;SDS011;10060;48.274;12.214;2022-12-24T10:04:25;1.30;;;1.20;;
19800;SDS011;10060;48.274;12.214;2022-12-24T10:07:30;1.13;;;1.10;;
19800;SDS011;10060;48.274;12.214;2022-12-24T10:10:39;1.87;;;1.30;;
19800;SDS011;10060;48.274;12.214;2022-12-24T10:13:48;1.20;;;1.10;;
19800;SDS011;10060;48.274;12.214;2022-12-24T10:16:54;4.53;;;1.30;;
19800;SDS011;10060;48.274;12.214;2022-12-24T10:20:01;2.43;;;1.20;;
19800;SDS011;10060;48.274;12.214;2022-12-24T10:23:06;2.90;;;1.40;;
19800;SDS011;10060;48.274;12.214;2022-12-24T10:26:14;2.87;;;1.20;;
19800;SDS011;10060;48.274;12.214;2022-12-24T10:29:19;1.20;;;1.10;;
19800;SDS011;10060;48.274;12.214;2022-12-24T10:32:22;2.00;;;1.30;;
19800;SDS011;10060;48.274;12.214;2022-12-24T10:35:26;6.00;;;1.47;;
19800;SDS011;10060;48.274;12.214;2022-12-24T10:38:30;4.67;;;1.13;;
19800;SDS011;10060;48.274;12.214;2022-12-24T10:41:34;11.60;;;1.53;;
19800;SDS011;10060;48.274;12.214;2022-12-24T10:44:36;1.20;;;1.10;;
19800;SDS011;10060;48.274;12.214;2022-12-24T10:47:39;5.83;;;1.70;;
19800;SDS011;10060;48.274;12.214;2022-12-24T10:50:42;1.87;;;1.17;;
19800;SDS011;10060;48.274;12.214;2022-12-24T10:53:48;2.40;;;1.43;;
19800;SDS011;10060;48.274;12.214;2022-12-24T10:56:54;2.70;;;1.27;;
19800;SDS011;10060;48.274;12.214;2022-12-24T10:59:57;2.73;;;1.30;;
19800;SDS011;10060;48.274;12.214;2022-12-24T11:03:06;1.30;;;1.13;;
19800;SDS011;10060;48.274;12.214;2022-12-24T11:06:09;3.23;;;1.37;;
19800;SDS011;10060;48.274;12.214;2022-12-24T11:09:18;3.60;;;1.33;;
19800;SDS011;10060;48.274;12.214;2022-12-24T11:12:23;2.83;;;1.43;;
19800;SDS011;10060;48.274;12.214;2022-12-24T11:15:28;3.50;;;1.40;;
19800;SDS011;10060;48.274;12.214;2022-12-24T11:18:31;2.83;;;1.20;;
19800;SDS011;10060;48.274;12.214;2022-12-24T11:21:34;1.10;;;1.00;;
19800;SDS011;10060;48.274;12.214;2022-12-24T11:24:38;0.97;;;0.90;;
19800;SDS011;10060;48.274;12.214;2022-12-24T11:27:42;2.00;;;0.97;;
19800;SDS011;10060;48.274;12.214;2022-12-24T11:30:59;3.30;;;1.17;;
19800;SDS011;10060;48.274;12.214;2022-12-24T11:34:02;1.83;;;1.37;;
19800;SDS011;10060;48.274;12.214;2022-12-24T11:37:18;5.33;;;1.27;;
19800;SDS011;10060;48.274;12.214;2022-12-24T11:40:21;3.50;;;1.53;;
19800;SDS011;10060;48.274;12.214;2022-12-24T11:43:33;4.03;;;1.30;;
19800;SDS011;10060;48.274;12.214;2022-12-24T11:46:43;2.97;;;1.47;;
19800;SDS011;10060;48.274;12.214;2022-12-24T11:49:51;1.53;;;1.30;;
19800;SDS011;10060;48.274;12.214;2022-12-24T11:52:55;1.27;;;1.17;;
19800;SDS011;10060;48.274;12.214;2022-12-24T11:56:00;6.33;;;1.50;;
19800;SDS011;10060;48.274;12.214;2022-12-24T11:59:10;4.50;;;1.30;;
19800;SDS011;10060;48.274;12.214;2022-12-24T12:02:14;3.93;;;1.20;;
19800;SDS011;10060;48.274;12.214;2022-12-24T12:05:18;3.37;;;1.67;;
19800;SDS011;10060;48.274;12.214;2022-12-24T12:08:22;2.90;;;1.50;;
19800;SDS011;10060;48.274;12.214;2022-12-24T12:11:25;2.13;;;1.10;;
19800;SDS011;10060;48.274;12.214;2022-12-24T12:14:32;3.53;;;1.23;;
19800;SDS011;10060;48.274;12.214;2022-12-24T12:17:36;2.43;;;1.00;;
19800;SDS011;10060;48.274;12.214;2022-12-24T12:20:41;3.03;;;1.40;;
19800;SDS011;10060;48.274;12.214;2022-12-24T12:23:44;6.20;;;2.23;;
19800;SDS011;10060;48.274;12.214;2022-12-24T12:26:48;2.27;;;1.50;;
19800;SDS011;10060;48.274;12.214;2022-12-24T12:29:57;3.63;;;1.50;;
19800;SDS011;10060;48.274;12.214;2022-12-24T12:33:02;1.80;;;1.30;;
19800;SDS011;10060;48.274;12.214;2022-12-24T12:36:06;6.20;;;1.50;;
19800;SDS011;10060;48.274;12.214;2022-12-24T12:39:09;4.97;;;1.30;;
19800;SDS011;10060;48.274;12.214;2022-12-24T12:42:14;3.40;;;1.40;;
19800;SDS011;10060;48.274;12.214;2022-12-24T12:48:46;2.87;;;1.43;;
19800;SDS011;10060;48.274;12.214;2022-12-24T12:51:52;2.10;;;1.20;;
19800;SDS011;10060;48.274;12.214;2022-12-24T12:55:00;3.67;;;1.30;;
19800;SDS011;10060;48.274;12.214;2022-12-24T12:58:03;6.00;;;1.40;;
19800;SDS011;10060;48.274;12.214;2022-12-24T13:01:07;6.97;;;1.80;;
19800;SDS011;10060;48.274;12.214;2022-12-24T13:11:07;4.60;;;1.47;;
19800;SDS011;10060;48.274;12.214;2022-12-24T13:14:18;5.70;;;1.47;;
19800;SDS011;10060;48.274;12.214;2022-12-24T13:17:28;1.43;;;1.23;;
19800;SDS011;10060;48.274;12.214;2022-12-24T13:20:35;2.53;;;1.40;;
19800;SDS011;10060;48.274;12.214;2022-12-24T13:23:39;4.33;;;1.60;;
19800;SDS011;10060;48.274;12.214;2022-12-24T13:26:43;5.93;;;1.73;;
19800;SDS011;10060;48.274;12.214;2022-12-24T13:30:01;3.13;;;1.37;;
19800;SDS011;10060;48.274;12.214;2022-12-24T13:33:03;5.77;;;1.47;;
19800;SDS011;10060;48.274;12.214;2022-12-24T13:36:06;7.47;;;1.60;;
19800;SDS011;10060;48.274;12.214;2022-12-24T13:39:14;4.00;;;1.83;;
19800;SDS011;10060;48.274;12.214;2022-12-24T13:45:42;2.60;;;1.60;;
19800;SDS011;10060;48.274;12.214;2022-12-24T13:48:44;6.93;;;1.30;;
19800;SDS011;10060;48.274;12.214;2022-12-24T13:51:46;1.67;;;1.27;;
19800;SDS011;10060;48.274;12.214;2022-12-24T13:54:59;5.43;;;1.50;;
19800;SDS011;10060;48.274;12.214;2022-12-24T13:58:03;3.57;;;1.13;;
19800;SDS011;10060;48.274;12.214;2022-12-24T14:01:08;3.73;;;1.70;;
19800;SDS011;10060;48.274;12.214;2022-12-24T14:04:17;2.50;;;1.73;;
19800;SDS011;10060;48.274;12.214;2022-12-24T14:07:22;3.17;;;1.37;;
19800;SDS011;10060;48.274;12.214;2022-12-24T14:10:25;5.20;;;1.20;;
19800;SDS011;10060;48.274;12.214;2022-12-24T14:16:52;4.47;;;1.60;;
19800;SDS011;10060;48.274;12.214;2022-12-24T14:19:56;3.23;;;1.50;;
19800;SDS011;10060;48.274;12.214;2022-12-24T14:22:59;3.90;;;1.47;;
19800;SDS011;10060;48.274;12.214;2022-12-24T14:26:01;4.03;;;1.67;;
19800;SDS011;10060;48.274;12.214;2022-12-24T14:29:06;5.20;;;1.30;;
19800;SDS011;10060;48.274;12.214;2022-12-24T14:32:12;5.40;;;1.90;;
19800;SDS011;10060;48.274;12.214;2022-12-24T14:35:16;2.90;;;1.50;;
19800;SDS011;10060;48.274;12.214;2022-12-24T14:38:18;5.37;;;1.53;;
19800;SDS011;10060;48.274;12.214;2022-12-24T14:41:28;4.27;;;1.20;;
19800;SDS011;10060;48.274;12.214;2022-12-24T14:44:33;5.90;;;1.43;;
19800;SDS011;10060;48.274;12.214;2022-12-24T14:47:39;2.33;;;1.70;;
19800;SDS011;10060;48.274;12.214;2022-12-24T14:50:47;4.37;;;1.70;;
19800;SDS011;10060;48.274;12.214;2022-12-24T14:53:58;3.23;;;1.37;;
19800;SDS011;10060;48.274;12.214;2022-12-24T14:57:13;3.07;;;1.40;;
19800;SDS011;10060;48.274;12.214;2022-12-24T15:00:19;4.03;;;1.40;;
19800;SDS011;10060;48.274;12.214;2022-12-24T15:03:24;5.13;;;2.07;;
19800;SDS011;10060;48.274;12.214;2022-12-24T15:06:28;3.97;;;1.67;;
19800;SDS011;10060;48.274;12.214;2022-12-24T15:09:32;3.13;;;1.70;;
19800;SDS011;10060;48.274;12.214;2022-12-24T15:12:38;1.60;;;1.50;;
19800;SDS011;10060;48.274;12.214;2022-12-24T15:15:41;4.13;;;1.60;;
19800;SDS011;10060;48.274;12.214;2022-12-24T15:18:45;1.87;;;1.40;;
19800;SDS011;10060;48.274;12.214;2022-12-24T15:21:49;2.67;;;1.53;;
19800;SDS011;10060;48.274;12.214;2022-12-24T15:24:51;2.60;;;1.37;;
19800;SDS011;10060;48.274;12.214;2022-12-24T15:27:53;2.70;;;1.57;;
19800;SDS011;10060;48.274;12.214;2022-12-24T15:31:02;4.27;;;1.43;;
19800;SDS011;10060;48.274;12.214;2022-12-24T15:37:23;8.03;;;1.83;;
19800;SDS011;10060;48.274;12.214;2022-12-24T15:40:26;3.17;;;1.30;;
19800;SDS011;10060;48.274;12.214;2022-12-24T15:43:28;4.33;;;1.97;;
19800;SDS011;10060;48.274;12.214;2022-12-24T15:46:31;4.07;;;1.80;;
19800;SDS011;10060;48.274;12.214;2022-12-24T15:49:33;6.27;;;2.50;;
19800;SDS011;10060;48.274;12.214;2022-12-24T15:52:38;5.80;;;2.40;;
19800;SDS011;10060;48.274;12.214;2022-12-24T15:55:43;2.77;;;1.90;;
19800;SDS011;10060;48.274;12.214;2022-12-24T15:58:45;3.73;;;2.00;;
19800;SDS011;10060;48.274;12.214;2022-12-24T16:01:47;5.90;;;1.90;;
19800;SDS011;10060;48.274;12.214;2022-12-24T16:04:49;3.73;;;1.30;;
19800;SDS011;10060;48.274;12.214;2022-12-24T16:08:03;3.60;;;1.53;;
19800;SDS011;10060;48.274;12.214;2022-12-24T16:11:10;4.10;;;1.80;;
19800;SDS011;10060;48.274;12.214;2022-12-24T16:14:12;4.07;;;1.70;;
19800;SDS011;10060;48.274;12.214;2022-12-24T16:17:19;3.13;;;1.90;;
19800;SDS011;10060;48.274;12.214;2022-12-24T16:20:21;5.30;;;1.60;;
19800;SDS011;10060;48.274;12.214;2022-12-24T16:23:25;2.33;;;1.80;;
19800;SDS011;10060;48.274;12.214;2022-12-24T16:26:30;3.27;;;1.60;;
19800;SDS011;10060;48.274;12.214;2022-12-24T16:29:32;3.60;;;1.50;;
19800;SDS011;10060;48.274;12.214;2022-12-24T16:32:35;2.77;;;1.60;;
19800;SDS011;10060;48.274;12.214;2022-12-24T16:35:37;2.90;;;1.50;;
19800;SDS011;10060;48.274;12.214;2022-12-24T16:38:40;2.93;;;1.63;;
19800;SDS011;10060;48.274;12.214;2022-12-24T16:42:00;2.30;;;1.33;;
19800;SDS011;10060;48.274;12.214;2022-12-24T16:45:19;5.20;;;1.93;;
19800;SDS011;10060;48.274;12.214;2022-12-24T16:48:22;2.63;;;1.70;;
19800;SDS011;10060;48.274;12.214;2022-12-24T16:51:24;1.80;;;1.47;;
19800;SDS011;10060;48.274;12.214;2022-12-24T16:54:28;2.37;;;1.60;;
19800;SDS011;10060;48.274;12.214;2022-12-24T16:57:31;2.70;;;1.70;;
19800;SDS011;10060;48.274;12.214;2022-12-24T17:00:34;2.10;;;1.40;;
19800;SDS011;10060;48.274;12.214;2022-12-24T17:03:36;2.70;;;1.50;;
19800;SDS011;10060;48.274;12.214;2022-12-24T17:06:38;1.57;;;1.47;;
19800;SDS011;10060;48.274;12.214;2022-12-24T17:09:41;3.23;;;1.50;;
19800;SDS011;10060;48.274;12.214;2022-12-24T17:12:44;2.40;;;1.63;;
19800;SDS011;10060;48.274;12.214;2022-12-24T17:15:46;2.23;;;1.70;;
19800;SDS011;10060;48.274;12.214;2022-12-24T17:18:48;6.37;;;1.77;;
19800;SDS011;10060;48.274;12.214;2022-12-24T17:21:51;1.50;;;1.40;;
19800;SDS011;10060;48.274;12.214;2022-12-24T17:24:54;2.47;;;1.50;;
19800;SDS011;10060;48.274;12.214;2022-12-24T17:27:57;3.63;;;1.50;;
19800;SDS011;10060;48.274;12.214;2022-12-24T17:30:59;3.60;;;1.73;;
19800;SDS011;10060;48.274;12.214;2022-12-24T17:34:01;4.37;;;1.90;;
19800;SDS011;10060;48.274;12.214;2022-12-24T17:37:03;2.43;;;1.80;;
19800;SDS011;10060;48.274;12.214;2022-12-24T17:40:08;2.40;;;2.03;;
19800;SDS011;10060;48.274;12.214;2022-12-24T17:43:10;3.47;;;1.80;;
19800;SDS011;10060;48.274;12.214;2022-12-24T17:46:14;3.83;;;1.70;;
19800;SDS011;10060;48.274;12.214;2022-12-24T17:49:16;3.30;;;2.00;;
19800;SDS011;10060;48.274;12.214;2022-12-24T17:52:18;4.17;;;1.87;;
19800;SDS011;10060;48.274;12.214;2022-12-24T17:55:22;2.80;;;1.83;;
19800;SDS011;10060;48.274;12.214;2022-12-24T17:58:24;3.33;;;1.50;;
19800;SDS011;10060;48.274;12.214;2022-12-24T18:01:26;3.77;;;1.63;;
19800;SDS011;10060;48.274;12.214;2022-12-24T18:04:32;4.53;;;2.03;;
19800;SDS011;10060;48.274;12.214;2022-12-24T18:07:34;2.23;;;1.70;;
19800;SDS011;10060;48.274;12.214;2022-12-24T18:10:37;4.27;;;2.03;;
19800;SDS011;10060;48.274;12.214;2022-12-24T18:13:40;3.27;;;1.90;;
19800;SDS011;10060;48.274;12.214;2022-12-24T18:16:42;2.00;;;1.63;;
19800;SDS011;10060;48.274;12.214;2022-12-24T18:19:45;2.83;;;1.80;;
19800;SDS011;10060;48.274;12.214;2022-12-24T18:22:47;2.03;;;1.33;;
19800;SDS011;10060;48.274;12.214;2022-12-24T18:25:50;3.17;;;1.77;;
19800;SDS011;10060;48.274;12.214;2022-12-24T18:28:52;3.00;;;1.60;;
19800;SDS011;10060;48.274;12.214;2022-12-24T18:31:55;2.10;;;1.80;;
19800;SDS011;10060;48.274;12.214;2022-12-24T18:34:57;2.97;;;1.70;;